Terminal Aerodrome Forecast
Issued by NWS Chicago, IL

Home | Current Version | Previous Version | Text Only | Print | Product List | Glossary Off
Versions: 1 2 3 4 5 6 7 8 9 10 11 12 13 14 15 16 17 18 19 20 21 22 23 24 25

000
FTUS43 KLOT 240911 AAA
TAFRFD
TAF AMD
KRFD 240911Z 2409/2506 18007KT P6SM SCT030 BKN250
     FM241200 21010G16KT P6SM SCT040
     FM242000 24012G19KT P6SM VCTS BKN040CB=

USA.gov is the U.S. government's official web portal to all federal, state and local government web resources and services.